sensor_id;sensor_type;location;lat;lon;timestamp;P1;durP1;ratioP1;P2;durP2;ratioP2
31112;SDS011;17763;48.730;9.136;2023-12-20T00:00:25;1.77;;;1.67;;
31112;SDS011;17763;48.730;9.136;2023-12-20T00:02:53;1.58;;;1.48;;
31112;SDS011;17763;48.730;9.136;2023-12-20T00:05:21;1.50;;;1.40;;
31112;SDS011;17763;48.730;9.136;2023-12-20T00:07:47;1.33;;;1.23;;
31112;SDS011;17763;48.730;9.136;2023-12-20T00:10:15;1.70;;;1.60;;
31112;SDS011;17763;48.730;9.136;2023-12-20T00:12:41;1.30;;;1.30;;
31112;SDS011;17763;48.730;9.136;2023-12-20T00:15:09;1.20;;;1.20;;
31112;SDS011;17763;48.730;9.136;2023-12-20T00:17:34;1.20;;;1.10;;
31112;SDS011;17763;48.730;9.136;2023-12-20T00:20:00;1.58;;;1.45;;
31112;SDS011;17763;48.730;9.136;2023-12-20T00:22:30;1.10;;;1.00;;
31112;SDS011;17763;48.730;9.136;2023-12-20T00:24:56;1.73;;;1.52;;
31112;SDS011;17763;48.730;9.136;2023-12-20T00:27:24;1.02;;;1.02;;
31112;SDS011;17763;48.730;9.136;2023-12-20T00:29:50;1.25;;;1.15;;
31112;SDS011;17763;48.730;9.136;2023-12-20T00:32:18;1.23;;;1.15;;
31112;SDS011;17763;48.730;9.136;2023-12-20T00:34:48;1.10;;;1.02;;
31112;SDS011;17763;48.730;9.136;2023-12-20T00:37:13;1.10;;;1.10;;
31112;SDS011;17763;48.730;9.136;2023-12-20T00:39:39;1.00;;;1.00;;
31112;SDS011;17763;48.730;9.136;2023-12-20T00:42:05;1.00;;;0.82;;
31112;SDS011;17763;48.730;9.136;2023-12-20T00:44:30;1.30;;;1.20;;
31112;SDS011;17763;48.730;9.136;2023-12-20T00:46:58;1.15;;;1.00;;
31112;SDS011;17763;48.730;9.136;2023-12-20T00:49:26;0.98;;;0.98;;
31112;SDS011;17763;48.730;9.136;2023-12-20T00:51:52;2.35;;;1.20;;
31112;SDS011;17763;48.730;9.136;2023-12-20T00:54:18;0.90;;;0.82;;
31112;SDS011;17763;48.730;9.136;2023-12-20T00:56:43;1.67;;;1.25;;
31112;SDS011;17763;48.730;9.136;2023-12-20T00:59:09;1.20;;;1.10;;
31112;SDS011;17763;48.730;9.136;2023-12-20T01:01:35;1.08;;;0.98;;
31112;SDS011;17763;48.730;9.136;2023-12-20T01:04:01;0.85;;;0.85;;
31112;SDS011;17763;48.730;9.136;2023-12-20T01:06:27;1.02;;;1.02;;
31112;SDS011;17763;48.730;9.136;2023-12-20T01:08:55;1.55;;;0.80;;
31112;SDS011;17763;48.730;9.136;2023-12-20T01:11:21;1.35;;;0.93;;
31112;SDS011;17763;48.730;9.136;2023-12-20T01:13:49;1.23;;;1.13;;
31112;SDS011;17763;48.730;9.136;2023-12-20T01:16:14;1.10;;;1.00;;
31112;SDS011;17763;48.730;9.136;2023-12-20T01:18:40;1.92;;;1.15;;
31112;SDS011;17763;48.730;9.136;2023-12-20T01:21:08;1.73;;;0.98;;
31112;SDS011;17763;48.730;9.136;2023-12-20T01:23:34;4.63;;;1.27;;
31112;SDS011;17763;48.730;9.136;2023-12-20T01:26:00;2.00;;;0.90;;
31112;SDS011;17763;48.730;9.136;2023-12-20T01:28:26;1.15;;;1.05;;
31112;SDS011;17763;48.730;9.136;2023-12-20T01:30:54;1.98;;;1.05;;
31112;SDS011;17763;48.730;9.136;2023-12-20T01:33:20;1.13;;;1.02;;
31112;SDS011;17763;48.730;9.136;2023-12-20T01:35:46;0.98;;;0.90;;
31112;SDS011;17763;48.730;9.136;2023-12-20T01:38:11;1.52;;;1.42;;
31112;SDS011;17763;48.730;9.136;2023-12-20T01:40:39;1.88;;;1.20;;
31112;SDS011;17763;48.730;9.136;2023-12-20T01:43:09;1.30;;;1.30;;
31112;SDS011;17763;48.730;9.136;2023-12-20T01:45:38;1.20;;;1.20;;
31112;SDS011;17763;48.730;9.136;2023-12-20T01:48:05;1.35;;;1.10;;
31112;SDS011;17763;48.730;9.136;2023-12-20T01:50:31;1.27;;;1.17;;
31112;SDS011;17763;48.730;9.136;2023-12-20T01:53:00;2.33;;;1.25;;
31112;SDS011;17763;48.730;9.136;2023-12-20T01:55:31;1.08;;;1.08;;
31112;SDS011;17763;48.730;9.136;2023-12-20T01:57:59;1.23;;;1.13;;
31112;SDS011;17763;48.730;9.136;2023-12-20T02:00:26;1.25;;;1.10;;
31112;SDS011;17763;48.730;9.136;2023-12-20T02:02:54;1.50;;;1.00;;
31112;SDS011;17763;48.730;9.136;2023-12-20T02:05:23;3.28;;;1.27;;
31112;SDS011;17763;48.730;9.136;2023-12-20T02:07:49;1.48;;;1.05;;
31112;SDS011;17763;48.730;9.136;2023-12-20T02:10:17;0.98;;;0.98;;
31112;SDS011;17763;48.730;9.136;2023-12-20T02:12:45;1.27;;;0.90;;
31112;SDS011;17763;48.730;9.136;2023-12-20T02:15:11;0.82;;;0.82;;
31112;SDS011;17763;48.730;9.136;2023-12-20T02:17:36;0.80;;;0.80;;
31112;SDS011;17763;48.730;9.136;2023-12-20T02:20:04;0.80;;;0.80;;
31112;SDS011;17763;48.730;9.136;2023-12-20T02:22:33;0.70;;;0.70;;
31112;SDS011;17763;48.730;9.136;2023-12-20T02:24:58;0.90;;;0.68;;
31112;SDS011;17763;48.730;9.136;2023-12-20T02:27:26;0.63;;;0.63;;
31112;SDS011;17763;48.730;9.136;2023-12-20T02:29:53;0.93;;;0.60;;
31112;SDS011;17763;48.730;9.136;2023-12-20T02:32:19;0.60;;;0.60;;
31112;SDS011;17763;48.730;9.136;2023-12-20T02:34:47;0.95;;;0.52;;
31112;SDS011;17763;48.730;9.136;2023-12-20T02:37:13;0.80;;;0.70;;
31112;SDS011;17763;48.730;9.136;2023-12-20T02:39:42;0.80;;;0.80;;
31112;SDS011;17763;48.730;9.136;2023-12-20T02:42:09;0.57;;;0.57;;
31112;SDS011;17763;48.730;9.136;2023-12-20T02:44:35;0.57;;;0.57;;
31112;SDS011;17763;48.730;9.136;2023-12-20T02:47:01;2.10;;;0.88;;
31112;SDS011;17763;48.730;9.136;2023-12-20T02:49:27;0.68;;;0.60;;
31112;SDS011;17763;48.730;9.136;2023-12-20T02:51:53;0.60;;;0.60;;
31112;SDS011;17763;48.730;9.136;2023-12-20T02:54:18;1.63;;;0.70;;
31112;SDS011;17763;48.730;9.136;2023-12-20T02:56:44;1.67;;;0.70;;
31112;SDS011;17763;48.730;9.136;2023-12-20T02:59:12;0.82;;;0.77;;
31112;SDS011;17763;48.730;9.136;2023-12-20T03:01:44;1.20;;;1.10;;
31112;SDS011;17763;48.730;9.136;2023-12-20T03:04:10;0.77;;;0.77;;
31112;SDS011;17763;48.730;9.136;2023-12-20T03:06:39;0.50;;;0.50;;
31112;SDS011;17763;48.730;9.136;2023-12-20T03:09:05;0.50;;;0.50;;
31112;SDS011;17763;48.730;9.136;2023-12-20T03:11:30;1.45;;;0.70;;
31112;SDS011;17763;48.730;9.136;2023-12-20T03:13:56;0.60;;;0.40;;
31112;SDS011;17763;48.730;9.136;2023-12-20T03:16:22;0.60;;;0.60;;
31112;SDS011;17763;48.730;9.136;2023-12-20T03:18:48;0.52;;;0.52;;
31112;SDS011;17763;48.730;9.136;2023-12-20T03:21:14;2.10;;;0.70;;
31112;SDS011;17763;48.730;9.136;2023-12-20T03:23:42;1.10;;;0.90;;
31112;SDS011;17763;48.730;9.136;2023-12-20T03:26:08;2.67;;;1.65;;
31112;SDS011;17763;48.730;9.136;2023-12-20T03:28:34;0.77;;;0.77;;
31112;SDS011;17763;48.730;9.136;2023-12-20T03:31:03;0.70;;;0.70;;
31112;SDS011;17763;48.730;9.136;2023-12-20T03:33:29;0.80;;;0.70;;
31112;SDS011;17763;48.730;9.136;2023-12-20T03:35:54;0.73;;;0.60;;
31112;SDS011;17763;48.730;9.136;2023-12-20T03:38:20;1.30;;;0.52;;
31112;SDS011;17763;48.730;9.136;2023-12-20T03:40:46;0.60;;;0.60;;
31112;SDS011;17763;48.730;9.136;2023-12-20T03:43:12;3.30;;;0.60;;
31112;SDS011;17763;48.730;9.136;2023-12-20T03:45:38;1.00;;;0.50;;
31112;SDS011;17763;48.730;9.136;2023-12-20T03:48:06;0.65;;;0.40;;
31112;SDS011;17763;48.730;9.136;2023-12-20T03:50:34;0.45;;;0.43;;
31112;SDS011;17763;48.730;9.136;2023-12-20T03:53:00;0.30;;;0.30;;
31112;SDS011;17763;48.730;9.136;2023-12-20T03:55:26;0.32;;;0.32;;
31112;SDS011;17763;48.730;9.136;2023-12-20T03:57:54;0.35;;;0.35;;
31112;SDS011;17763;48.730;9.136;2023-12-20T04:00:19;0.52;;;0.30;;
31112;SDS011;17763;48.730;9.136;2023-12-20T04:02:45;0.30;;;0.30;;
31112;SDS011;17763;48.730;9.136;2023-12-20T04:05:11;0.40;;;0.40;;
31112;SDS011;17763;48.730;9.136;2023-12-20T04:07:36;0.30;;;0.30;;
31112;SDS011;17763;48.730;9.136;2023-12-20T04:10:02;0.30;;;0.30;;
31112;SDS011;17763;48.730;9.136;2023-12-20T04:12:31;0.47;;;0.40;;
31112;SDS011;17763;48.730;9.136;2023-12-20T04:14:57;0.28;;;0.28;;
31112;SDS011;17763;48.730;9.136;2023-12-20T04:17:25;0.30;;;0.30;;
31112;SDS011;17763;48.730;9.136;2023-12-20T04:19:51;0.45;;;0.45;;
31112;SDS011;17763;48.730;9.136;2023-12-20T04:22:17;0.20;;;0.20;;
31112;SDS011;17763;48.730;9.136;2023-12-20T04:24:45;0.30;;;0.30;;
31112;SDS011;17763;48.730;9.136;2023-12-20T04:27:11;0.40;;;0.30;;
31112;SDS011;17763;48.730;9.136;2023-12-20T04:29:37;0.90;;;0.30;;
31112;SDS011;17763;48.730;9.136;2023-12-20T04:32:05;0.40;;;0.40;;
31112;SDS011;17763;48.730;9.136;2023-12-20T04:34:31;0.35;;;0.35;;
31112;SDS011;17763;48.730;9.136;2023-12-20T04:36:56;0.30;;;0.30;;
31112;SDS011;17763;48.730;9.136;2023-12-20T04:39:22;0.40;;;0.40;;
31112;SDS011;17763;48.730;9.136;2023-12-20T04:41:47;0.95;;;0.60;;
31112;SDS011;17763;48.730;9.136;2023-12-20T04:44:13;0.40;;;0.40;;
31112;SDS011;17763;48.730;9.136;2023-12-20T04:46:41;1.55;;;0.47;;
31112;SDS011;17763;48.730;9.136;2023-12-20T04:49:07;0.40;;;0.40;;
31112;SDS011;17763;48.730;9.136;2023-12-20T04:51:33;1.48;;;0.40;;
31112;SDS011;17763;48.730;9.136;2023-12-20T04:54:01;0.85;;;0.30;;
31112;SDS011;17763;48.730;9.136;2023-12-20T04:56:27;0.50;;;0.50;;
31112;SDS011;17763;48.730;9.136;2023-12-20T04:58:53;0.30;;;0.30;;
31112;SDS011;17763;48.730;9.136;2023-12-20T05:01:19;0.30;;;0.30;;
31112;SDS011;17763;48.730;9.136;2023-12-20T05:03:45;0.43;;;0.40;;
31112;SDS011;17763;48.730;9.136;2023-12-20T05:06:11;0.43;;;0.40;;
31112;SDS011;17763;48.730;9.136;2023-12-20T05:08:37;0.55;;;0.40;;
31112;SDS011;17763;48.730;9.136;2023-12-20T05:11:04;0.40;;;0.40;;
31112;SDS011;17763;48.730;9.136;2023-12-20T05:13:30;0.85;;;0.40;;
31112;SDS011;17763;48.730;9.136;2023-12-20T05:15:56;0.43;;;0.43;;
31112;SDS011;17763;48.730;9.136;2023-12-20T05:18:21;0.50;;;0.50;;
31112;SDS011;17763;48.730;9.136;2023-12-20T05:20:48;0.60;;;0.60;;
31112;SDS011;17763;48.730;9.136;2023-12-20T05:23:16;1.00;;;0.50;;
31112;SDS011;17763;48.730;9.136;2023-12-20T05:25:42;0.70;;;0.50;;
31112;SDS011;17763;48.730;9.136;2023-12-20T05:28:08;0.50;;;0.50;;
31112;SDS011;17763;48.730;9.136;2023-12-20T05:30:34;0.55;;;0.52;;
31112;SDS011;17763;48.730;9.136;2023-12-20T05:32:59;1.48;;;0.80;;
31112;SDS011;17763;48.730;9.136;2023-12-20T05:35:25;0.82;;;0.50;;
31112;SDS011;17763;48.730;9.136;2023-12-20T05:37:53;0.93;;;0.40;;
31112;SDS011;17763;48.730;9.136;2023-12-20T05:40:18;0.45;;;0.40;;
31112;SDS011;17763;48.730;9.136;2023-12-20T05:42:46;1.08;;;0.60;;
31112;SDS011;17763;48.730;9.136;2023-12-20T05:45:16;0.68;;;0.68;;
31112;SDS011;17763;48.730;9.136;2023-12-20T05:47:42;1.63;;;0.90;;
31112;SDS011;17763;48.730;9.136;2023-12-20T05:50:08;1.40;;;0.63;;
31112;SDS011;17763;48.730;9.136;2023-12-20T05:52:34;1.23;;;0.88;;
31112;SDS011;17763;48.730;9.136;2023-12-20T05:54:59;1.17;;;0.63;;
31112;SDS011;17763;48.730;9.136;2023-12-20T05:57:28;1.27;;;0.75;;
31112;SDS011;17763;48.730;9.136;2023-12-20T05:59:53;1.85;;;0.73;;
31112;SDS011;17763;48.730;9.136;2023-12-20T06:02:19;1.58;;;0.70;;
31112;SDS011;17763;48.730;9.136;2023-12-20T06:04:45;0.60;;;0.60;;
31112;SDS011;17763;48.730;9.136;2023-12-20T06:07:11;2.05;;;0.90;;
31112;SDS011;17763;48.730;9.136;2023-12-20T06:09:37;1.88;;;0.75;;
31112;SDS011;17763;48.730;9.136;2023-12-20T06:12:03;5.68;;;1.02;;
31112;SDS011;17763;48.730;9.136;2023-12-20T06:14:29;1.38;;;0.90;;
31112;SDS011;17763;48.730;9.136;2023-12-20T06:16:55;1.25;;;1.10;;
31112;SDS011;17763;48.730;9.136;2023-12-20T06:19:24;3.33;;;0.90;;
31112;SDS011;17763;48.730;9.136;2023-12-20T06:21:50;1.05;;;1.00;;
31112;SDS011;17763;48.730;9.136;2023-12-20T06:24:15;1.77;;;1.02;;
31112;SDS011;17763;48.730;9.136;2023-12-20T06:26:41;1.27;;;1.00;;
31112;SDS011;17763;48.730;9.136;2023-12-20T06:29:06;1.05;;;1.00;;
31112;SDS011;17763;48.730;9.136;2023-12-20T06:31:32;2.38;;;1.10;;
31112;SDS011;17763;48.730;9.136;2023-12-20T06:34:00;3.20;;;1.30;;
31112;SDS011;17763;48.730;9.136;2023-12-20T06:36:28;1.50;;;1.40;;
31112;SDS011;17763;48.730;9.136;2023-12-20T06:38:54;5.72;;;2.00;;
31112;SDS011;17763;48.730;9.136;2023-12-20T06:41:20;7.07;;;1.92;;
31112;SDS011;17763;48.730;9.136;2023-12-20T06:43:45;4.00;;;1.55;;
31112;SDS011;17763;48.730;9.136;2023-12-20T06:46:12;2.40;;;1.45;;
31112;SDS011;17763;48.730;9.136;2023-12-20T06:48:38;0.90;;;0.90;;
31112;SDS011;17763;48.730;9.136;2023-12-20T06:51:05;1.10;;;1.00;;
31112;SDS011;17763;48.730;9.136;2023-12-20T06:53:33;1.15;;;1.08;;
31112;SDS011;17763;48.730;9.136;2023-12-20T06:55:59;2.45;;;1.20;;
31112;SDS011;17763;48.730;9.136;2023-12-20T06:58:24;2.10;;;1.00;;
31112;SDS011;17763;48.730;9.136;2023-12-20T07:00:50;1.10;;;0.90;;
31112;SDS011;17763;48.730;9.136;2023-12-20T07:03:18;0.95;;;0.90;;
31112;SDS011;17763;48.730;9.136;2023-12-20T07:05:46;1.85;;;1.05;;
31112;SDS011;17763;48.730;9.136;2023-12-20T07:08:11;1.23;;;1.05;;
31112;SDS011;17763;48.730;9.136;2023-12-20T07:10:39;1.10;;;1.00;;
31112;SDS011;17763;48.730;9.136;2023-12-20T07:13:05;0.70;;;0.70;;
31112;SDS011;17763;48.730;9.136;2023-12-20T07:15:31;1.33;;;1.20;;
31112;SDS011;17763;48.730;9.136;2023-12-20T07:17:57;1.90;;;1.75;;
31112;SDS011;17763;48.730;9.136;2023-12-20T07:20:25;0.77;;;0.77;;
31112;SDS011;17763;48.730;9.136;2023-12-20T07:22:50;1.35;;;1.17;;
31112;SDS011;17763;48.730;9.136;2023-12-20T07:25:16;2.65;;;1.33;;
31112;SDS011;17763;48.730;9.136;2023-12-20T07:27:41;3.03;;;1.25;;
31112;SDS011;17763;48.730;9.136;2023-12-20T07:30:07;2.20;;;1.17;;
31112;SDS011;17763;48.730;9.136;2023-12-20T07:32:33;1.90;;;1.33;;
31112;SDS011;17763;48.730;9.136;2023-12-20T07:34:59;2.88;;;1.33;;
31112;SDS011;17763;48.730;9.136;2023-12-20T07:37:27;1.45;;;1.35;;
31112;SDS011;17763;48.730;9.136;2023-12-20T07:39:53;2.95;;;1.95;;
31112;SDS011;17763;48.730;9.136;2023-12-20T07:42:19;2.20;;;2.10;;
31112;SDS011;17763;48.730;9.136;2023-12-20T07:44:47;1.90;;;1.80;;
31112;SDS011;17763;48.730;9.136;2023-12-20T07:47:13;2.40;;;2.20;;
31112;SDS011;17763;48.730;9.136;2023-12-20T07:49:42;7.10;;;2.65;;
31112;SDS011;17763;48.730;9.136;2023-12-20T07:52:07;3.20;;;2.95;;
31112;SDS011;17763;48.730;9.136;2023-12-20T07:54:35;3.00;;;2.72;;
31112;SDS011;17763;48.730;9.136;2023-12-20T07:57:01;4.03;;;3.10;;
31112;SDS011;17763;48.730;9.136;2023-12-20T07:59:28;4.32;;;3.33;;
31112;SDS011;17763;48.730;9.136;2023-12-20T08:01:53;4.05;;;3.13;;
31112;SDS011;17763;48.730;9.136;2023-12-20T08:04:19;3.75;;;3.08;;
31112;SDS011;17763;48.730;9.136;2023-12-20T08:06:44;7.78;;;3.85;;
31112;SDS011;17763;48.730;9.136;2023-12-20T08:09:12;4.88;;;3.90;;
31112;SDS011;17763;48.730;9.136;2023-12-20T08:11:38;6.63;;;3.75;;
31112;SDS011;17763;48.730;9.136;2023-12-20T08:14:06;4.70;;;4.18;;
31112;SDS011;17763;48.730;9.136;2023-12-20T08:16:34;7.75;;;4.32;;
31112;SDS011;17763;48.730;9.136;2023-12-20T08:19:02;3.95;;;3.60;;
31112;SDS011;17763;48.730;9.136;2023-12-20T08:21:27;5.30;;;4.15;;
31112;SDS011;17763;48.730;9.136;2023-12-20T08:23:55;4.10;;;3.80;;
31112;SDS011;17763;48.730;9.136;2023-12-20T08:26:30;4.45;;;3.55;;
31112;SDS011;17763;48.730;9.136;2023-12-20T08:28:55;3.88;;;3.58;;
31112;SDS011;17763;48.730;9.136;2023-12-20T08:31:21;4.07;;;3.67;;
31112;SDS011;17763;48.730;9.136;2023-12-20T08:33:49;4.07;;;3.78;;
31112;SDS011;17763;48.730;9.136;2023-12-20T08:36:15;5.28;;;4.18;;
31112;SDS011;17763;48.730;9.136;2023-12-20T08:38:42;4.78;;;3.70;;
31112;SDS011;17763;48.730;9.136;2023-12-20T08:41:10;4.47;;;4.07;;
31112;SDS011;17763;48.730;9.136;2023-12-20T08:43:36;4.97;;;4.47;;
31112;SDS011;17763;48.730;9.136;2023-12-20T08:46:02;4.55;;;4.15;;
31112;SDS011;17763;48.730;9.136;2023-12-20T08:48:28;4.25;;;3.85;;
31112;SDS011;17763;48.730;9.136;2023-12-20T08:50:54;4.32;;;4.00;;
31112;SDS011;17763;48.730;9.136;2023-12-20T08:53:19;4.15;;;3.75;;
31112;SDS011;17763;48.730;9.136;2023-12-20T08:55:45;4.43;;;3.65;;
31112;SDS011;17763;48.730;9.136;2023-12-20T08:58:15;3.95;;;3.58;;
31112;SDS011;17763;48.730;9.136;2023-12-20T09:00:42;4.78;;;3.25;;
31112;SDS011;17763;48.730;9.136;2023-12-20T09:03:09;4.53;;;3.35;;
31112;SDS011;17763;48.730;9.136;2023-12-20T09:05:35;5.80;;;3.63;;
31112;SDS011;17763;48.730;9.136;2023-12-20T09:08:03;4.28;;;3.30;;
31112;SDS011;17763;48.730;9.136;2023-12-20T09:10:34;3.55;;;3.25;;
31112;SDS011;17763;48.730;9.136;2023-12-20T09:13:00;5.10;;;3.03;;
31112;SDS011;17763;48.730;9.136;2023-12-20T09:15:26;3.20;;;2.88;;
31112;SDS011;17763;48.730;9.136;2023-12-20T09:17:52;4.40;;;3.38;;
31112;SDS011;17763;48.730;9.136;2023-12-20T09:20:18;6.43;;;3.22;;
31112;SDS011;17763;48.730;9.136;2023-12-20T09:22:44;2.67;;;2.47;;
31112;SDS011;17763;48.730;9.136;2023-12-20T09:25:10;3.92;;;2.67;;
31112;SDS011;17763;48.730;9.136;2023-12-20T09:27:43;3.65;;;2.30;;
31112;SDS011;17763;48.730;9.136;2023-12-20T09:30:09;4.68;;;2.78;;
31112;SDS011;17763;48.730;9.136;2023-12-20T09:32:35;5.05;;;3.47;;
31112;SDS011;17763;48.730;9.136;2023-12-20T09:35:01;5.07;;;2.45;;
31112;SDS011;17763;48.730;9.136;2023-12-20T09:37:27;2.88;;;2.35;;
31112;SDS011;17763;48.730;9.136;2023-12-20T09:39:53;5.45;;;3.30;;
31112;SDS011;17763;48.730;9.136;2023-12-20T09:42:21;3.97;;;2.85;;
31112;SDS011;17763;48.730;9.136;2023-12-20T09:44:53;3.28;;;2.13;;
31112;SDS011;17763;48.730;9.136;2023-12-20T09:47:19;6.15;;;2.25;;
31112;SDS011;17763;48.730;9.136;2023-12-20T09:49:48;4.82;;;1.98;;
31112;SDS011;17763;48.730;9.136;2023-12-20T09:52:15;5.00;;;2.53;;
31112;SDS011;17763;48.730;9.136;2023-12-20T09:54:43;6.53;;;2.33;;
31112;SDS011;17763;48.730;9.136;2023-12-20T09:57:13;5.70;;;2.20;;
31112;SDS011;17763;48.730;9.136;2023-12-20T09:59:46;4.97;;;2.08;;
31112;SDS011;17763;48.730;9.136;2023-12-20T10:02:15;5.47;;;1.88;;
31112;SDS011;17763;48.730;9.136;2023-12-20T10:04:46;4.65;;;2.53;;
31112;SDS011;17763;48.730;9.136;2023-12-20T10:07:15;6.25;;;2.17;;
31112;SDS011;17763;48.730;9.136;2023-12-20T10:09:47;3.60;;;1.83;;
31112;SDS011;17763;48.730;9.136;2023-12-20T10:12:19;6.03;;;1.60;;
31112;SDS011;17763;48.730;9.136;2023-12-20T10:14:49;3.70;;;1.55;;
31112;SDS011;17763;48.730;9.136;2023-12-20T10:17:16;4.78;;;1.85;;
31112;SDS011;17763;48.730;9.136;2023-12-20T10:19:42;5.78;;;1.60;;
31112;SDS011;17763;48.730;9.136;2023-12-20T10:22:10;5.85;;;1.95;;
31112;SDS011;17763;48.730;9.136;2023-12-20T10:24:36;5.95;;;2.05;;
31112;SDS011;17763;48.730;9.136;2023-12-20T10:27:05;6.47;;;2.30;;
31112;SDS011;17763;48.730;9.136;2023-12-20T10:29:37;3.95;;;1.88;;
31112;SDS011;17763;48.730;9.136;2023-12-20T10:32:22;5.95;;;2.55;;
31112;SDS011;17763;48.730;9.136;2023-12-20T10:34:51;2.38;;;1.80;;
31112;SDS011;17763;48.730;9.136;2023-12-20T10:37:18;2.45;;;1.80;;
31112;SDS011;17763;48.730;9.136;2023-12-20T10:39:50;6.15;;;1.80;;
31112;SDS011;17763;48.730;9.136;2023-12-20T10:44:49;6.70;;;2.53;;
31112;SDS011;17763;48.730;9.136;2023-12-20T10:47:16;6.35;;;2.15;;
31112;SDS011;17763;48.730;9.136;2023-12-20T10:49:42;10.32;;;2.63;;
31112;SDS011;17763;48.730;9.136;2023-12-20T10:52:09;5.90;;;2.25;;
31112;SDS011;17763;48.730;9.136;2023-12-20T10:54:40;5.43;;;1.85;;
31112;SDS011;17763;48.730;9.136;2023-12-20T10:57:06;1.73;;;1.63;;
31112;SDS011;17763;48.730;9.136;2023-12-20T10:59:38;5.05;;;2.17;;
31112;SDS011;17763;48.730;9.136;2023-12-20T11:02:07;4.47;;;2.30;;
31112;SDS011;17763;48.730;9.136;2023-12-20T11:10:00;7.13;;;2.90;;
31112;SDS011;17763;48.730;9.136;2023-12-20T11:12:43;6.57;;;2.43;;
31112;SDS011;17763;48.730;9.136;2023-12-20T11:15:20;9.40;;;2.20;;
31112;SDS011;17763;48.730;9.136;2023-12-20T11:17:56;7.50;;;2.45;;
31112;SDS011;17763;48.730;9.136;2023-12-20T11:20:23;6.80;;;2.13;;
31112;SDS011;17763;48.730;9.136;2023-12-20T11:23:01;7.55;;;2.30;;
31112;SDS011;17763;48.730;9.136;2023-12-20T11:25:27;9.75;;;5.00;;
31112;SDS011;17763;48.730;9.136;2023-12-20T11:28:09;10.93;;;4.13;;
31112;SDS011;17763;48.730;9.136;2023-12-20T11:33:07;21.00;;;7.32;;
31112;SDS011;17763;48.730;9.136;2023-12-20T11:35:33;21.05;;;9.20;;
31112;SDS011;17763;48.730;9.136;2023-12-20T11:38:07;21.55;;;9.18;;
31112;SDS011;17763;48.730;9.136;2023-12-20T11:40:33;4.50;;;2.38;;
31112;SDS011;17763;48.730;9.136;2023-12-20T11:43:00;4.40;;;2.65;;
31112;SDS011;17763;48.730;9.136;2023-12-20T11:45:26;3.08;;;1.95;;
31112;SDS011;17763;48.730;9.136;2023-12-20T11:47:52;8.55;;;3.88;;
31112;SDS011;17763;48.730;9.136;2023-12-20T11:50:22;4.53;;;2.97;;
31112;SDS011;17763;48.730;9.136;2023-12-20T11:52:49;9.88;;;3.60;;
31112;SDS011;17763;48.730;9.136;2023-12-20T11:55:15;6.00;;;1.88;;
31112;SDS011;17763;48.730;9.136;2023-12-20T11:57:41;7.63;;;2.58;;
31112;SDS011;17763;48.730;9.136;2023-12-20T12:00:10;6.97;;;1.95;;
31112;SDS011;17763;48.730;9.136;2023-12-20T12:02:41;3.80;;;1.83;;
31112;SDS011;17763;48.730;9.136;2023-12-20T12:05:19;5.70;;;1.85;;
31112;SDS011;17763;48.730;9.136;2023-12-20T12:07:45;7.53;;;2.15;;
31112;SDS011;17763;48.730;9.136;2023-12-20T12:10:10;6.43;;;2.70;;
31112;SDS011;17763;48.730;9.136;2023-12-20T12:12:38;4.00;;;2.30;;
31112;SDS011;17763;48.730;9.136;2023-12-20T12:15:04;4.90;;;2.33;;
31112;SDS011;17763;48.730;9.136;2023-12-20T12:17:31;10.45;;;2.35;;
31112;SDS011;17763;48.730;9.136;2023-12-20T12:20:03;9.73;;;2.65;;
31112;SDS011;17763;48.730;9.136;2023-12-20T12:22:30;6.25;;;2.00;;
31112;SDS011;17763;48.730;9.136;2023-12-20T12:24:58;7.05;;;1.77;;
31112;SDS011;17763;48.730;9.136;2023-12-20T12:27:25;4.22;;;2.03;;
31112;SDS011;17763;48.730;9.136;2023-12-20T12:30:05;5.38;;;1.83;;
31112;SDS011;17763;48.730;9.136;2023-12-20T12:32:34;4.22;;;1.50;;
31112;SDS011;17763;48.730;9.136;2023-12-20T12:35:03;7.28;;;2.30;;
31112;SDS011;17763;48.730;9.136;2023-12-20T12:37:31;9.10;;;2.08;;
31112;SDS011;17763;48.730;9.136;2023-12-20T12:39:58;3.85;;;1.85;;
31112;SDS011;17763;48.730;9.136;2023-12-20T12:42:31;6.43;;;2.25;;
31112;SDS011;17763;48.730;9.136;2023-12-20T12:44:57;7.75;;;1.92;;
31112;SDS011;17763;48.730;9.136;2023-12-20T12:47:23;13.63;;;2.08;;
31112;SDS011;17763;48.730;9.136;2023-12-20T12:49:52;8.65;;;1.83;;
31112;SDS011;17763;48.730;9.136;2023-12-20T12:52:22;7.45;;;2.40;;
31112;SDS011;17763;48.730;9.136;2023-12-20T12:54:48;3.53;;;1.98;;
31112;SDS011;17763;48.730;9.136;2023-12-20T12:57:14;4.75;;;2.70;;
31112;SDS011;17763;48.730;9.136;2023-12-20T12:59:43;6.28;;;2.22;;
31112;SDS011;17763;48.730;9.136;2023-12-20T13:02:10;5.40;;;2.22;;
31112;SDS011;17763;48.730;9.136;2023-12-20T13:04:37;5.35;;;1.80;;
31112;SDS011;17763;48.730;9.136;2023-12-20T13:07:02;10.18;;;2.38;;
31112;SDS011;17763;48.730;9.136;2023-12-20T13:09:29;10.27;;;3.30;;
31112;SDS011;17763;48.730;9.136;2023-12-20T13:11:54;5.60;;;2.10;;
31112;SDS011;17763;48.730;9.136;2023-12-20T13:14:20;6.65;;;2.30;;
31112;SDS011;17763;48.730;9.136;2023-12-20T13:16:48;6.10;;;2.03;;
31112;SDS011;17763;48.730;9.136;2023-12-20T13:19:13;6.35;;;2.10;;
31112;SDS011;17763;48.730;9.136;2023-12-20T13:21:41;5.97;;;1.90;;
31112;SDS011;17763;48.730;9.136;2023-12-20T13:24:07;5.78;;;1.92;;
31112;SDS011;17763;48.730;9.136;2023-12-20T13:26:32;2.60;;;1.67;;
31112;SDS011;17763;48.730;9.136;2023-12-20T13:29:01;8.80;;;1.77;;
31112;SDS011;17763;48.730;9.136;2023-12-20T13:31:44;6.65;;;2.13;;
31112;SDS011;17763;48.730;9.136;2023-12-20T13:34:12;4.07;;;1.80;;
31112;SDS011;17763;48.730;9.136;2023-12-20T13:36:38;6.80;;;1.90;;
31112;SDS011;17763;48.730;9.136;2023-12-20T13:39:03;5.97;;;1.90;;
31112;SDS011;17763;48.730;9.136;2023-12-20T13:41:30;7.25;;;2.05;;
31112;SDS011;17763;48.730;9.136;2023-12-20T13:43:56;4.95;;;2.10;;
31112;SDS011;17763;48.730;9.136;2023-12-20T13:46:21;7.72;;;2.70;;
31112;SDS011;17763;48.730;9.136;2023-12-20T13:48:48;5.90;;;1.75;;
31112;SDS011;17763;48.730;9.136;2023-12-20T13:51:14;5.85;;;1.52;;
31112;SDS011;17763;48.730;9.136;2023-12-20T13:53:43;7.78;;;2.20;;
31112;SDS011;17763;48.730;9.136;2023-12-20T13:56:11;3.53;;;1.52;;
31112;SDS011;17763;48.730;9.136;2023-12-20T13:58:36;4.07;;;1.65;;
31112;SDS011;17763;48.730;9.136;2023-12-20T14:01:02;3.30;;;1.40;;
31112;SDS011;17763;48.730;9.136;2023-12-20T14:03:28;3.80;;;1.63;;
31112;SDS011;17763;48.730;9.136;2023-12-20T14:05:53;5.38;;;1.70;;
31112;SDS011;17763;48.730;9.136;2023-12-20T14:08:19;4.72;;;1.30;;
31112;SDS011;17763;48.730;9.136;2023-12-20T14:10:45;4.95;;;1.33;;
31112;SDS011;17763;48.730;9.136;2023-12-20T14:13:10;3.75;;;1.65;;
31112;SDS011;17763;48.730;9.136;2023-12-20T14:15:36;4.10;;;1.80;;
31112;SDS011;17763;48.730;9.136;2023-12-20T14:18:05;3.05;;;1.60;;
31112;SDS011;17763;48.730;9.136;2023-12-20T14:20:31;3.20;;;1.52;;
31112;SDS011;17763;48.730;9.136;2023-12-20T14:23:01;4.70;;;1.55;;
31112;SDS011;17763;48.730;9.136;2023-12-20T14:25:28;6.00;;;1.85;;
31112;SDS011;17763;48.730;9.136;2023-12-20T14:27:53;3.15;;;1.63;;
31112;SDS011;17763;48.730;9.136;2023-12-20T14:30:22;7.22;;;1.77;;
31112;SDS011;17763;48.730;9.136;2023-12-20T14:32:47;8.93;;;2.08;;
31112;SDS011;17763;48.730;9.136;2023-12-20T14:35:13;8.45;;;1.95;;
31112;SDS011;17763;48.730;9.136;2023-12-20T14:37:39;7.40;;;2.10;;
31112;SDS011;17763;48.730;9.136;2023-12-20T14:40:08;6.05;;;3.15;;
31112;SDS011;17763;48.730;9.136;2023-12-20T14:42:39;5.00;;;2.03;;
31112;SDS011;17763;48.730;9.136;2023-12-20T14:45:06;4.22;;;2.03;;
31112;SDS011;17763;48.730;9.136;2023-12-20T14:47:34;2.88;;;1.63;;
31112;SDS011;17763;48.730;9.136;2023-12-20T14:50:02;4.18;;;1.63;;
31112;SDS011;17763;48.730;9.136;2023-12-20T14:52:29;5.40;;;2.15;;
31112;SDS011;17763;48.730;9.136;2023-12-20T14:54:54;5.55;;;2.63;;
31112;SDS011;17763;48.730;9.136;2023-12-20T14:57:20;6.47;;;1.40;;